sensor_id;sensor_type;location;lat;lon;timestamp;P1;durP1;ratioP1;P2;durP2;ratioP2
80921;SDS011;70374;46.156;18.614;2023-06-05T00:02:47;7.83;;;2.43;;
80921;SDS011;70374;46.156;18.614;2023-06-05T00:05:50;8.13;;;2.35;;
80921;SDS011;70374;46.156;18.614;2023-06-05T00:08:52;9.68;;;2.58;;
80921;SDS011;70374;46.156;18.614;2023-06-05T00:11:56;7.10;;;2.47;;
80921;SDS011;70374;46.156;18.614;2023-06-05T00:14:58;6.95;;;2.58;;
80921;SDS011;70374;46.156;18.614;2023-06-05T00:18:02;9.57;;;2.67;;
80921;SDS011;70374;46.156;18.614;2023-06-05T00:21:06;5.47;;;2.50;;
80921;SDS011;70374;46.156;18.614;2023-06-05T00:24:08;5.20;;;2.25;;
80921;SDS011;70374;46.156;18.614;2023-06-05T00:27:11;8.05;;;1.95;;
80921;SDS011;70374;46.156;18.614;2023-06-05T00:30:14;7.78;;;2.72;;
80921;SDS011;70374;46.156;18.614;2023-06-05T00:33:16;5.87;;;2.57;;
80921;SDS011;70374;46.156;18.614;2023-06-05T00:36:19;8.32;;;2.60;;
80921;SDS011;70374;46.156;18.614;2023-06-05T00:39:24;6.95;;;2.60;;
80921;SDS011;70374;46.156;18.614;2023-06-05T00:42:27;5.93;;;2.60;;
80921;SDS011;70374;46.156;18.614;2023-06-05T00:45:29;5.62;;;2.20;;
80921;SDS011;70374;46.156;18.614;2023-06-05T00:48:33;6.10;;;2.13;;
80921;SDS011;70374;46.156;18.614;2023-06-05T00:51:36;7.28;;;2.83;;
80921;SDS011;70374;46.156;18.614;2023-06-05T00:54:40;5.40;;;2.20;;
80921;SDS011;70374;46.156;18.614;2023-06-05T00:57:44;6.90;;;2.60;;
80921;SDS011;70374;46.156;18.614;2023-06-05T01:00:47;9.07;;;2.20;;
80921;SDS011;70374;46.156;18.614;2023-06-05T01:03:51;6.83;;;2.70;;
80921;SDS011;70374;46.156;18.614;2023-06-05T01:06:56;11.95;;;2.70;;
80921;SDS011;70374;46.156;18.614;2023-06-05T01:10:02;9.57;;;2.42;;
80921;SDS011;70374;46.156;18.614;2023-06-05T01:13:10;7.57;;;2.20;;
80921;SDS011;70374;46.156;18.614;2023-06-05T01:16:19;5.78;;;2.03;;
80921;SDS011;70374;46.156;18.614;2023-06-05T01:19:26;7.00;;;2.40;;
80921;SDS011;70374;46.156;18.614;2023-06-05T01:22:33;9.52;;;2.67;;
80921;SDS011;70374;46.156;18.614;2023-06-05T01:25:39;7.82;;;2.80;;
80921;SDS011;70374;46.156;18.614;2023-06-05T01:28:45;6.57;;;2.47;;
80921;SDS011;70374;46.156;18.614;2023-06-05T01:31:52;8.50;;;2.80;;
80921;SDS011;70374;46.156;18.614;2023-06-05T01:34:58;10.90;;;2.90;;
80921;SDS011;70374;46.156;18.614;2023-06-05T01:38:02;6.78;;;2.33;;
80921;SDS011;70374;46.156;18.614;2023-06-05T01:41:08;7.62;;;2.45;;
80921;SDS011;70374;46.156;18.614;2023-06-05T01:44:13;6.60;;;2.72;;
80921;SDS011;70374;46.156;18.614;2023-06-05T01:47:17;6.00;;;2.65;;
80921;SDS011;70374;46.156;18.614;2023-06-05T01:50:23;6.93;;;2.60;;
80921;SDS011;70374;46.156;18.614;2023-06-05T01:53:27;8.75;;;3.00;;
80921;SDS011;70374;46.156;18.614;2023-06-05T01:56:31;7.37;;;2.12;;
80921;SDS011;70374;46.156;18.614;2023-06-05T01:59:34;7.72;;;2.47;;
80921;SDS011;70374;46.156;18.614;2023-06-05T02:02:37;8.85;;;2.78;;
80921;SDS011;70374;46.156;18.614;2023-06-05T02:05:43;7.03;;;2.90;;
80921;SDS011;70374;46.156;18.614;2023-06-05T02:08:45;7.15;;;2.85;;
80921;SDS011;70374;46.156;18.614;2023-06-05T02:11:48;8.65;;;2.75;;
80921;SDS011;70374;46.156;18.614;2023-06-05T02:14:52;9.15;;;2.97;;
80921;SDS011;70374;46.156;18.614;2023-06-05T02:17:54;8.85;;;3.45;;
80921;SDS011;70374;46.156;18.614;2023-06-05T02:20:59;5.97;;;2.23;;
80921;SDS011;70374;46.156;18.614;2023-06-05T02:24:02;7.87;;;3.25;;
80921;SDS011;70374;46.156;18.614;2023-06-05T02:27:05;7.37;;;2.80;;
80921;SDS011;70374;46.156;18.614;2023-06-05T02:30:10;5.32;;;2.58;;
80921;SDS011;70374;46.156;18.614;2023-06-05T02:33:14;6.15;;;3.10;;
80921;SDS011;70374;46.156;18.614;2023-06-05T02:36:16;9.13;;;2.70;;
80921;SDS011;70374;46.156;18.614;2023-06-05T02:39:20;10.07;;;2.97;;
80921;SDS011;70374;46.156;18.614;2023-06-05T02:42:23;7.18;;;3.00;;
80921;SDS011;70374;46.156;18.614;2023-06-05T02:45:26;8.45;;;2.90;;
80921;SDS011;70374;46.156;18.614;2023-06-05T02:48:29;6.07;;;2.80;;
80921;SDS011;70374;46.156;18.614;2023-06-05T02:51:32;7.03;;;2.97;;
80921;SDS011;70374;46.156;18.614;2023-06-05T02:54:35;8.32;;;3.00;;
80921;SDS011;70374;46.156;18.614;2023-06-05T02:57:38;9.65;;;3.28;;
80921;SDS011;70374;46.156;18.614;2023-06-05T03:00:44;5.72;;;2.45;;
80921;SDS011;70374;46.156;18.614;2023-06-05T03:03:49;7.07;;;2.97;;
80921;SDS011;70374;46.156;18.614;2023-06-05T03:06:55;6.07;;;2.53;;
80921;SDS011;70374;46.156;18.614;2023-06-05T03:10:00;5.65;;;2.70;;
80921;SDS011;70374;46.156;18.614;2023-06-05T03:13:03;8.98;;;2.90;;
80921;SDS011;70374;46.156;18.614;2023-06-05T03:16:07;7.57;;;3.03;;
80921;SDS011;70374;46.156;18.614;2023-06-05T03:19:11;5.55;;;2.62;;
80921;SDS011;70374;46.156;18.614;2023-06-05T03:22:14;8.70;;;2.47;;
80921;SDS011;70374;46.156;18.614;2023-06-05T03:25:17;7.85;;;2.80;;
80921;SDS011;70374;46.156;18.614;2023-06-05T03:28:21;7.35;;;2.62;;
80921;SDS011;70374;46.156;18.614;2023-06-05T03:31:25;6.75;;;2.95;;
80921;SDS011;70374;46.156;18.614;2023-06-05T03:34:28;8.05;;;3.10;;
80921;SDS011;70374;46.156;18.614;2023-06-05T03:37:32;7.80;;;3.40;;
80921;SDS011;70374;46.156;18.614;2023-06-05T03:40:35;7.55;;;3.40;;
80921;SDS011;70374;46.156;18.614;2023-06-05T03:43:42;6.57;;;3.08;;
80921;SDS011;70374;46.156;18.614;2023-06-05T03:46:45;7.05;;;2.85;;
80921;SDS011;70374;46.156;18.614;2023-06-05T03:49:48;6.28;;;3.03;;
80921;SDS011;70374;46.156;18.614;2023-06-05T03:52:52;9.13;;;2.90;;
80921;SDS011;70374;46.156;18.614;2023-06-05T03:55:55;6.82;;;3.15;;
80921;SDS011;70374;46.156;18.614;2023-06-05T03:59:02;6.00;;;2.28;;
80921;SDS011;70374;46.156;18.614;2023-06-05T04:02:12;7.10;;;2.62;;
80921;SDS011;70374;46.156;18.614;2023-06-05T04:05:15;6.47;;;2.47;;
80921;SDS011;70374;46.156;18.614;2023-06-05T04:08:19;9.60;;;3.40;;
80921;SDS011;70374;46.156;18.614;2023-06-05T04:11:22;7.25;;;2.97;;
80921;SDS011;70374;46.156;18.614;2023-06-05T04:14:31;8.85;;;3.10;;
80921;SDS011;70374;46.156;18.614;2023-06-05T04:17:34;7.05;;;3.50;;
80921;SDS011;70374;46.156;18.614;2023-06-05T04:20:39;7.43;;;3.10;;
80921;SDS011;70374;46.156;18.614;2023-06-05T04:23:45;11.90;;;3.00;;
80921;SDS011;70374;46.156;18.614;2023-06-05T04:26:47;8.43;;;3.08;;
80921;SDS011;70374;46.156;18.614;2023-06-05T04:29:50;8.63;;;2.95;;
80921;SDS011;70374;46.156;18.614;2023-06-05T04:32:53;5.95;;;2.90;;
80921;SDS011;70374;46.156;18.614;2023-06-05T04:35:59;9.73;;;2.92;;
80921;SDS011;70374;46.156;18.614;2023-06-05T04:39:02;8.47;;;3.77;;
80921;SDS011;70374;46.156;18.614;2023-06-05T04:42:07;6.72;;;3.47;;
80921;SDS011;70374;46.156;18.614;2023-06-05T04:45:16;6.70;;;3.05;;
80921;SDS011;70374;46.156;18.614;2023-06-05T04:48:20;9.27;;;3.45;;
80921;SDS011;70374;46.156;18.614;2023-06-05T04:51:23;8.27;;;3.67;;
80921;SDS011;70374;46.156;18.614;2023-06-05T04:54:26;7.63;;;3.17;;
80921;SDS011;70374;46.156;18.614;2023-06-05T04:57:29;6.60;;;2.80;;
80921;SDS011;70374;46.156;18.614;2023-06-05T05:00:33;9.80;;;3.92;;
80921;SDS011;70374;46.156;18.614;2023-06-05T05:03:36;7.00;;;3.33;;
80921;SDS011;70374;46.156;18.614;2023-06-05T05:06:39;12.73;;;3.58;;
80921;SDS011;70374;46.156;18.614;2023-06-05T05:09:43;8.17;;;3.43;;
80921;SDS011;70374;46.156;18.614;2023-06-05T05:12:47;8.52;;;3.42;;
80921;SDS011;70374;46.156;18.614;2023-06-05T05:15:50;6.70;;;3.40;;
80921;SDS011;70374;46.156;18.614;2023-06-05T05:18:55;7.32;;;3.78;;
80921;SDS011;70374;46.156;18.614;2023-06-05T05:21:57;7.03;;;3.58;;
80921;SDS011;70374;46.156;18.614;2023-06-05T05:25:01;7.60;;;3.60;;
80921;SDS011;70374;46.156;18.614;2023-06-05T05:28:03;8.75;;;3.55;;
80921;SDS011;70374;46.156;18.614;2023-06-05T05:31:07;10.25;;;3.90;;
80921;SDS011;70374;46.156;18.614;2023-06-05T05:34:10;8.38;;;4.00;;
80921;SDS011;70374;46.156;18.614;2023-06-05T05:37:13;6.47;;;3.50;;
80921;SDS011;70374;46.156;18.614;2023-06-05T05:40:16;7.10;;;3.77;;
80921;SDS011;70374;46.156;18.614;2023-06-05T05:43:19;8.60;;;3.53;;
80921;SDS011;70374;46.156;18.614;2023-06-05T05:46:22;7.90;;;2.70;;
80921;SDS011;70374;46.156;18.614;2023-06-05T05:49:25;9.65;;;3.60;;
80921;SDS011;70374;46.156;18.614;2023-06-05T05:52:27;7.28;;;3.47;;
80921;SDS011;70374;46.156;18.614;2023-06-05T05:55:30;9.27;;;4.00;;
80921;SDS011;70374;46.156;18.614;2023-06-05T05:58:32;8.75;;;3.12;;
80921;SDS011;70374;46.156;18.614;2023-06-05T06:01:35;10.07;;;3.33;;
80921;SDS011;70374;46.156;18.614;2023-06-05T06:04:38;17.95;;;3.45;;
80921;SDS011;70374;46.156;18.614;2023-06-05T06:07:42;8.73;;;2.85;;
80921;SDS011;70374;46.156;18.614;2023-06-05T06:10:45;12.13;;;2.90;;
80921;SDS011;70374;46.156;18.614;2023-06-05T06:13:48;8.15;;;2.78;;
80921;SDS011;70374;46.156;18.614;2023-06-05T06:16:54;9.70;;;2.87;;
80921;SDS011;70374;46.156;18.614;2023-06-05T06:20:02;10.05;;;3.28;;
80921;SDS011;70374;46.156;18.614;2023-06-05T06:23:18;7.25;;;2.95;;
80921;SDS011;70374;46.156;18.614;2023-06-05T06:26:20;6.90;;;3.03;;
80921;SDS011;70374;46.156;18.614;2023-06-05T06:29:32;10.23;;;3.05;;
80921;SDS011;70374;46.156;18.614;2023-06-05T06:32:37;6.05;;;2.50;;
80921;SDS011;70374;46.156;18.614;2023-06-05T06:35:44;7.40;;;3.28;;
80921;SDS011;70374;46.156;18.614;2023-06-05T06:38:46;9.55;;;3.42;;
80921;SDS011;70374;46.156;18.614;2023-06-05T06:41:49;7.97;;;2.93;;
80921;SDS011;70374;46.156;18.614;2023-06-05T06:44:52;6.10;;;2.60;;
80921;SDS011;70374;46.156;18.614;2023-06-05T06:47:58;11.40;;;2.70;;
80921;SDS011;70374;46.156;18.614;2023-06-05T06:51:07;10.63;;;3.10;;
80921;SDS011;70374;46.156;18.614;2023-06-05T06:54:10;8.57;;;3.10;;
80921;SDS011;70374;46.156;18.614;2023-06-05T06:57:12;10.67;;;3.13;;
80921;SDS011;70374;46.156;18.614;2023-06-05T07:00:15;7.65;;;2.90;;
80921;SDS011;70374;46.156;18.614;2023-06-05T07:03:18;6.87;;;2.75;;
80921;SDS011;70374;46.156;18.614;2023-06-05T07:06:21;8.23;;;2.83;;
80921;SDS011;70374;46.156;18.614;2023-06-05T07:09:24;8.15;;;3.40;;
80921;SDS011;70374;46.156;18.614;2023-06-05T07:12:27;14.37;;;3.20;;
80921;SDS011;70374;46.156;18.614;2023-06-05T07:15:30;9.30;;;3.28;;
80921;SDS011;70374;46.156;18.614;2023-06-05T07:18:32;6.95;;;3.20;;
80921;SDS011;70374;46.156;18.614;2023-06-05T07:21:35;6.53;;;3.37;;
80921;SDS011;70374;46.156;18.614;2023-06-05T07:24:40;7.40;;;3.55;;
80921;SDS011;70374;46.156;18.614;2023-06-05T07:27:44;6.37;;;3.20;;
80921;SDS011;70374;46.156;18.614;2023-06-05T07:30:47;8.57;;;3.55;;
80921;SDS011;70374;46.156;18.614;2023-06-05T07:33:50;7.15;;;3.30;;
80921;SDS011;70374;46.156;18.614;2023-06-05T07:36:53;8.63;;;3.45;;
80921;SDS011;70374;46.156;18.614;2023-06-05T07:39:55;7.35;;;3.37;;
80921;SDS011;70374;46.156;18.614;2023-06-05T07:42:58;10.77;;;3.07;;
80921;SDS011;70374;46.156;18.614;2023-06-05T07:46:01;9.45;;;3.12;;
80921;SDS011;70374;46.156;18.614;2023-06-05T07:49:04;9.43;;;3.35;;
80921;SDS011;70374;46.156;18.614;2023-06-05T07:52:07;8.32;;;3.08;;
80921;SDS011;70374;46.156;18.614;2023-06-05T07:55:09;9.50;;;3.08;;
80921;SDS011;70374;46.156;18.614;2023-06-05T07:58:12;7.97;;;3.20;;
80921;SDS011;70374;46.156;18.614;2023-06-05T08:01:15;8.20;;;3.30;;
80921;SDS011;70374;46.156;18.614;2023-06-05T08:04:18;9.32;;;3.15;;
80921;SDS011;70374;46.156;18.614;2023-06-05T08:07:21;6.95;;;2.65;;
80921;SDS011;70374;46.156;18.614;2023-06-05T08:10:24;5.40;;;2.35;;
80921;SDS011;70374;46.156;18.614;2023-06-05T08:13:26;8.03;;;3.00;;
80921;SDS011;70374;46.156;18.614;2023-06-05T08:16:29;8.43;;;3.25;;
80921;SDS011;70374;46.156;18.614;2023-06-05T08:19:33;8.60;;;3.00;;
80921;SDS011;70374;46.156;18.614;2023-06-05T08:22:35;6.03;;;2.37;;
80921;SDS011;70374;46.156;18.614;2023-06-05T08:25:38;6.57;;;2.85;;
80921;SDS011;70374;46.156;18.614;2023-06-05T08:28:41;7.00;;;2.90;;
80921;SDS011;70374;46.156;18.614;2023-06-05T08:31:43;8.70;;;2.87;;
80921;SDS011;70374;46.156;18.614;2023-06-05T08:34:46;8.30;;;3.17;;
80921;SDS011;70374;46.156;18.614;2023-06-05T08:37:49;7.20;;;2.80;;
80921;SDS011;70374;46.156;18.614;2023-06-05T08:40:55;9.40;;;2.80;;
80921;SDS011;70374;46.156;18.614;2023-06-05T08:44:02;12.03;;;2.70;;
80921;SDS011;70374;46.156;18.614;2023-06-05T08:47:05;12.20;;;2.92;;
80921;SDS011;70374;46.156;18.614;2023-06-05T08:50:10;12.75;;;2.97;;
80921;SDS011;70374;46.156;18.614;2023-06-05T08:53:13;10.70;;;2.90;;
80921;SDS011;70374;46.156;18.614;2023-06-05T08:56:19;14.05;;;3.03;;
80921;SDS011;70374;46.156;18.614;2023-06-05T08:59:23;11.47;;;2.90;;
80921;SDS011;70374;46.156;18.614;2023-06-05T09:02:27;10.35;;;2.85;;
80921;SDS011;70374;46.156;18.614;2023-06-05T09:05:29;25.85;;;5.10;;
80921;SDS011;70374;46.156;18.614;2023-06-05T09:08:32;24.70;;;5.00;;
80921;SDS011;70374;46.156;18.614;2023-06-05T09:11:35;108.60;;;16.87;;
80921;SDS011;70374;46.156;18.614;2023-06-05T09:14:40;23.90;;;5.57;;
80921;SDS011;70374;46.156;18.614;2023-06-05T09:17:43;68.18;;;12.68;;
80921;SDS011;70374;46.156;18.614;2023-06-05T09:20:45;56.53;;;12.20;;
80921;SDS011;70374;46.156;18.614;2023-06-05T09:23:48;65.53;;;11.70;;
80921;SDS011;70374;46.156;18.614;2023-06-05T09:26:57;11.90;;;3.22;;
80921;SDS011;70374;46.156;18.614;2023-06-05T09:30:02;22.80;;;5.03;;
80921;SDS011;70374;46.156;18.614;2023-06-05T09:33:09;20.52;;;4.55;;
80921;SDS011;70374;46.156;18.614;2023-06-05T09:36:12;19.33;;;3.60;;
80921;SDS011;70374;46.156;18.614;2023-06-05T09:39:15;16.48;;;3.20;;
80921;SDS011;70374;46.156;18.614;2023-06-05T09:42:30;9.68;;;2.97;;
80921;SDS011;70374;46.156;18.614;2023-06-05T09:45:40;7.60;;;2.20;;
80921;SDS011;70374;46.156;18.614;2023-06-05T09:48:50;6.15;;;2.17;;
80921;SDS011;70374;46.156;18.614;2023-06-05T09:51:56;11.05;;;2.45;;
80921;SDS011;70374;46.156;18.614;2023-06-05T09:55:00;12.93;;;3.05;;
80921;SDS011;70374;46.156;18.614;2023-06-05T09:58:05;16.15;;;3.17;;
80921;SDS011;70374;46.156;18.614;2023-06-05T10:01:14;12.27;;;3.33;;
80921;SDS011;70374;46.156;18.614;2023-06-05T10:04:21;7.65;;;3.20;;
80921;SDS011;70374;46.156;18.614;2023-06-05T10:07:25;12.13;;;2.47;;
80921;SDS011;70374;46.156;18.614;2023-06-05T10:10:30;10.27;;;2.90;;
80921;SDS011;70374;46.156;18.614;2023-06-05T10:13:32;8.82;;;2.90;;
80921;SDS011;70374;46.156;18.614;2023-06-05T10:16:37;6.80;;;2.40;;
80921;SDS011;70374;46.156;18.614;2023-06-05T10:19:41;7.10;;;2.50;;
80921;SDS011;70374;46.156;18.614;2023-06-05T10:22:45;10.68;;;2.42;;
80921;SDS011;70374;46.156;18.614;2023-06-05T10:25:48;9.80;;;2.20;;
80921;SDS011;70374;46.156;18.614;2023-06-05T10:28:58;10.43;;;2.70;;
80921;SDS011;70374;46.156;18.614;2023-06-05T10:38:52;10.25;;;2.53;;
80921;SDS011;70374;46.156;18.614;2023-06-05T10:41:55;7.50;;;2.62;;
80921;SDS011;70374;46.156;18.614;2023-06-05T10:44:59;13.25;;;2.40;;
80921;SDS011;70374;46.156;18.614;2023-06-05T10:48:02;5.87;;;2.07;;
80921;SDS011;70374;46.156;18.614;2023-06-05T10:58:04;13.82;;;2.85;;
80921;SDS011;70374;46.156;18.614;2023-06-05T11:01:15;9.52;;;2.50;;
80921;SDS011;70374;46.156;18.614;2023-06-05T11:04:21;12.07;;;2.23;;
80921;SDS011;70374;46.156;18.614;2023-06-05T11:07:27;7.37;;;2.40;;
80921;SDS011;70374;46.156;18.614;2023-06-05T11:10:32;9.70;;;2.20;;
80921;SDS011;70374;46.156;18.614;2023-06-05T11:17:25;8.30;;;2.50;;
80921;SDS011;70374;46.156;18.614;2023-06-05T11:23:30;5.68;;;2.35;;
80921;SDS011;70374;46.156;18.614;2023-06-05T11:26:40;8.43;;;2.40;;
80921;SDS011;70374;46.156;18.614;2023-06-05T11:29:44;7.32;;;1.83;;
80921;SDS011;70374;46.156;18.614;2023-06-05T11:32:47;7.62;;;2.30;;
80921;SDS011;70374;46.156;18.614;2023-06-05T11:35:50;12.40;;;2.67;;
80921;SDS011;70374;46.156;18.614;2023-06-05T11:38:54;10.57;;;2.30;;
80921;SDS011;70374;46.156;18.614;2023-06-05T11:42:00;15.05;;;2.85;;
80921;SDS011;70374;46.156;18.614;2023-06-05T11:45:03;9.30;;;2.12;;
80921;SDS011;70374;46.156;18.614;2023-06-05T11:48:13;8.25;;;2.25;;
80921;SDS011;70374;46.156;18.614;2023-06-05T11:51:17;6.40;;;2.30;;
80921;SDS011;70374;46.156;18.614;2023-06-05T11:54:23;9.13;;;2.10;;
80921;SDS011;70374;46.156;18.614;2023-06-05T11:57:41;19.25;;;2.15;;
80921;SDS011;70374;46.156;18.614;2023-06-05T12:00:51;12.43;;;2.28;;
80921;SDS011;70374;46.156;18.614;2023-06-05T12:04:04;7.90;;;2.62;;
80921;SDS011;70374;46.156;18.614;2023-06-05T12:07:08;5.73;;;2.00;;
80921;SDS011;70374;46.156;18.614;2023-06-05T12:10:12;8.10;;;2.40;;
80921;SDS011;70374;46.156;18.614;2023-06-05T12:13:14;9.68;;;2.37;;
80921;SDS011;70374;46.156;18.614;2023-06-05T12:16:18;5.90;;;2.05;;
80921;SDS011;70374;46.156;18.614;2023-06-05T12:19:21;10.93;;;2.58;;
80921;SDS011;70374;46.156;18.614;2023-06-05T12:22:24;7.60;;;2.30;;
80921;SDS011;70374;46.156;18.614;2023-06-05T12:25:26;5.12;;;2.10;;
80921;SDS011;70374;46.156;18.614;2023-06-05T12:28:30;6.37;;;2.30;;
80921;SDS011;70374;46.156;18.614;2023-06-05T12:31:34;8.15;;;2.62;;
80921;SDS011;70374;46.156;18.614;2023-06-05T12:34:42;9.10;;;2.58;;
80921;SDS011;70374;46.156;18.614;2023-06-05T12:37:50;9.83;;;2.23;;
80921;SDS011;70374;46.156;18.614;2023-06-05T12:40:53;8.98;;;2.85;;
80921;SDS011;70374;46.156;18.614;2023-06-05T12:44:02;6.60;;;2.00;;
80921;SDS011;70374;46.156;18.614;2023-06-05T12:47:10;9.65;;;2.62;;
80921;SDS011;70374;46.156;18.614;2023-06-05T12:50:13;19.65;;;3.47;;
80921;SDS011;70374;46.156;18.614;2023-06-05T12:53:15;10.63;;;2.07;;
80921;SDS011;70374;46.156;18.614;2023-06-05T12:56:18;8.45;;;2.37;;
80921;SDS011;70374;46.156;18.614;2023-06-05T12:59:21;10.23;;;2.42;;
80921;SDS011;70374;46.156;18.614;2023-06-05T13:02:24;14.85;;;3.03;;
80921;SDS011;70374;46.156;18.614;2023-06-05T13:05:27;10.52;;;2.25;;
80921;SDS011;70374;46.156;18.614;2023-06-05T13:08:29;9.00;;;2.67;;
80921;SDS011;70374;46.156;18.614;2023-06-05T13:11:32;11.27;;;2.60;;
80921;SDS011;70374;46.156;18.614;2023-06-05T13:14:35;8.90;;;2.90;;
80921;SDS011;70374;46.156;18.614;2023-06-05T13:17:37;8.50;;;2.28;;
80921;SDS011;70374;46.156;18.614;2023-06-05T13:20:40;10.55;;;2.05;;
80921;SDS011;70374;46.156;18.614;2023-06-05T13:23:43;9.73;;;2.20;;
80921;SDS011;70374;46.156;18.614;2023-06-05T13:26:45;9.73;;;2.58;;
80921;SDS011;70374;46.156;18.614;2023-06-05T13:29:49;8.77;;;2.50;;
80921;SDS011;70374;46.156;18.614;2023-06-05T13:32:51;8.73;;;2.60;;
80921;SDS011;70374;46.156;18.614;2023-06-05T13:35:56;8.68;;;2.70;;
80921;SDS011;70374;46.156;18.614;2023-06-05T13:38:59;17.30;;;3.43;;
80921;SDS011;70374;46.156;18.614;2023-06-05T13:42:01;24.12;;;3.08;;
80921;SDS011;70374;46.156;18.614;2023-06-05T13:45:05;16.35;;;3.15;;
80921;SDS011;70374;46.156;18.614;2023-06-05T13:48:08;20.27;;;3.15;;
80921;SDS011;70374;46.156;18.614;2023-06-05T13:51:10;12.85;;;2.60;;
80921;SDS011;70374;46.156;18.614;2023-06-05T13:54:13;6.17;;;2.13;;
80921;SDS011;70374;46.156;18.614;2023-06-05T13:57:15;15.90;;;2.87;;
80921;SDS011;70374;46.156;18.614;2023-06-05T14:00:19;11.85;;;2.08;;
80921;SDS011;70374;46.156;18.614;2023-06-05T14:03:22;16.45;;;2.95;;
80921;SDS011;70374;46.156;18.614;2023-06-05T14:06:24;18.33;;;3.00;;
80921;SDS011;70374;46.156;18.614;2023-06-05T14:09:27;9.23;;;2.50;;
80921;SDS011;70374;46.156;18.614;2023-06-05T14:12:29;17.17;;;2.42;;
80921;SDS011;70374;46.156;18.614;2023-06-05T14:15:33;8.40;;;2.47;;
80921;SDS011;70374;46.156;18.614;2023-06-05T14:18:35;7.62;;;2.45;;
80921;SDS011;70374;46.156;18.614;2023-06-05T14:21:38;9.23;;;2.15;;
80921;SDS011;70374;46.156;18.614;2023-06-05T14:24:42;6.97;;;2.07;;
80921;SDS011;70374;46.156;18.614;2023-06-05T14:27:45;7.30;;;2.47;;
80921;SDS011;70374;46.156;18.614;2023-06-05T14:30:47;8.85;;;2.60;;
80921;SDS011;70374;46.156;18.614;2023-06-05T14:33:51;7.45;;;2.55;;
80921;SDS011;70374;46.156;18.614;2023-06-05T14:36:53;6.00;;;2.40;;
80921;SDS011;70374;46.156;18.614;2023-06-05T14:39:56;9.77;;;3.23;;
80921;SDS011;70374;46.156;18.614;2023-06-05T14:42:58;5.72;;;2.47;;
80921;SDS011;70374;46.156;18.614;2023-06-05T14:46:01;11.23;;;2.62;;
80921;SDS011;70374;46.156;18.614;2023-06-05T14:49:04;4.85;;;2.28;;
80921;SDS011;70374;46.156;18.614;2023-06-05T14:52:07;5.25;;;2.30;;
80921;SDS011;70374;46.156;18.614;2023-06-05T14:55:10;6.70;;;2.43;;
80921;SDS011;70374;46.156;18.614;2023-06-05T14:58:13;8.80;;;2.53;;
80921;SDS011;70374;46.156;18.614;2023-06-05T15:01:15;7.68;;;2.30;;
80921;SDS011;70374;46.156;18.614;2023-06-05T15:04:18;8.07;;;2.90;;
80921;SDS011;70374;46.156;18.614;2023-06-05T15:07:20;6.37;;;2.62;;
80921;SDS011;70374;46.156;18.614;2023-06-05T15:10:23;13.40;;;2.30;;
80921;SDS011;70374;46.156;18.614;2023-06-05T15:13:26;8.77;;;2.70;;
80921;SDS011;70374;46.156;18.614;2023-06-05T15:16:28;9.88;;;2.30;;
80921;SDS011;70374;46.156;18.614;2023-06-05T15:19:37;8.63;;;2.42;;
80921;SDS011;70374;46.156;18.614;2023-06-05T15:22:40;7.43;;;2.60;;
80921;SDS011;70374;46.156;18.614;2023-06-05T15:25:43;5.80;;;2.50;;
80921;SDS011;70374;46.156;18.614;2023-06-05T15:28:46;10.95;;;2.92;;
80921;SDS011;70374;46.156;18.614;2023-06-05T15:31:49;5.95;;;2.45;;
80921;SDS011;70374;46.156;18.614;2023-06-05T15:34:52;7.40;;;2.75;;
80921;SDS011;70374;46.156;18.614;2023-06-05T15:37:55;8.23;;;2.15;;
80921;SDS011;70374;46.156;18.614;2023-06-05T15:40:57;8.70;;;2.53;;
80921;SDS011;70374;46.156;18.614;2023-06-05T15:44:00;11.95;;;2.55;;
80921;SDS011;70374;46.156;18.614;2023-06-05T15:47:03;7.45;;;2.65;;
80921;SDS011;70374;46.156;18.614;2023-06-05T15:50:07;7.00;;;2.67;;
80921;SDS011;70374;46.156;18.614;2023-06-05T15:53:10;6.93;;;2.53;;
80921;SDS011;70374;46.156;18.614;2023-06-05T15:56:13;9.17;;;3.13;;
80921;SDS011;70374;46.156;18.614;2023-06-05T15:59:15;8.48;;;2.72;;
80921;SDS011;70374;46.156;18.614;2023-06-05T16:02:18;14.10;;;3.90;;
80921;SDS011;70374;46.156;18.614;2023-06-05T16:05:22;21.42;;;4.78;;
80921;SDS011;70374;46.156;18.614;2023-06-05T16:08:25;8.45;;;3.03;;
80921;SDS011;70374;46.156;18.614;2023-06-05T16:11:27;7.73;;;3.20;;
80921;SDS011;70374;46.156;18.614;2023-06-05T16:14:30;12.35;;;3.17;;
80921;SDS011;70374;46.156;18.614;2023-06-05T16:17:33;23.45;;;5.68;;
80921;SDS011;70374;46.156;18.614;2023-06-05T16:20:35;10.48;;;3.92;;
80921;SDS011;70374;46.156;18.614;2023-06-05T16:23:38;8.50;;;2.95;;
80921;SDS011;70374;46.156;18.614;2023-06-05T16:26:40;11.77;;;3.40;;
80921;SDS011;70374;46.156;18.614;2023-06-05T16:29:43;17.02;;;3.72;;
80921;SDS011;70374;46.156;18.614;2023-06-05T16:32:47;10.00;;;3.33;;
80921;SDS011;70374;46.156;18.614;2023-06-05T16:35:50;11.27;;;3.28;;
80921;SDS011;70374;46.156;18.614;2023-06-05T16:38:53;13.80;;;3.80;;
80921;SDS011;70374;46.156;18.614;2023-06-05T16:41:58;10.77;;;3.43;;
80921;SDS011;70374;46.156;18.614;2023-06-05T16:45:04;13.20;;;3.35;;
80921;SDS011;70374;46.156;18.614;2023-06-05T16:48:07;12.23;;;3.42;;
80921;SDS011;70374;46.156;18.614;2023-06-05T16:51:12;8.40;;;3.12;;
80921;SDS011;70374;46.156;18.614;2023-06-05T16:54:15;7.10;;;2.83;;
80921;SDS011;70374;46.156;18.614;2023-06-05T16:57:18;5.60;;;2.77;;
80921;SDS011;70374;46.156;18.614;2023-06-05T17:00:20;8.60;;;2.75;;
80921;SDS011;70374;46.156;18.614;2023-06-05T17:03:23;7.43;;;3.08;;
80921;SDS011;70374;46.156;18.614;2023-06-05T17:06:26;6.05;;;3.10;;
80921;SDS011;70374;46.156;18.614;2023-06-05T17:09:28;5.20;;;2.22;;
80921;SDS011;70374;46.156;18.614;2023-06-05T17:12:34;8.07;;;3.20;;
80921;SDS011;70374;46.156;18.614;2023-06-05T17:15:37;6.15;;;3.00;;
80921;SDS011;70374;46.156;18.614;2023-06-05T17:18:39;9.75;;;3.40;;
80921;SDS011;70374;46.156;18.614;2023-06-05T17:21:42;8.95;;;3.70;;
80921;SDS011;70374;46.156;18.614;2023-06-05T17:24:45;7.00;;;3.05;;
80921;SDS011;70374;46.156;18.614;2023-06-05T17:27:47;10.10;;;4.17;;
80921;SDS011;70374;46.156;18.614;2023-06-05T17:30:51;11.30;;;3.37;;
80921;SDS011;70374;46.156;18.614;2023-06-05T17:33:53;10.38;;;4.62;;
80921;SDS011;70374;46.156;18.614;2023-06-05T17:36:57;16.17;;;4.43;;
80921;SDS011;70374;46.156;18.614;2023-06-05T17:39:59;8.60;;;4.00;;
80921;SDS011;70374;46.156;18.614;2023-06-05T17:43:05;10.40;;;4.43;;
80921;SDS011;70374;46.156;18.614;2023-06-05T17:46:08;9.55;;;4.53;;
80921;SDS011;70374;46.156;18.614;2023-06-05T17:49:11;9.15;;;4.22;;
80921;SDS011;70374;46.156;18.614;2023-06-05T17:52:13;9.68;;;4.70;;
80921;SDS011;70374;46.156;18.614;2023-06-05T17:55:16;11.95;;;4.90;;
80921;SDS011;70374;46.156;18.614;2023-06-05T17:58:19;9.10;;;4.30;;
80921;SDS011;70374;46.156;18.614;2023-06-05T18:01:22;11.38;;;3.72;;
80921;SDS011;70374;46.156;18.614;2023-06-05T18:04:25;9.55;;;4.40;;
80921;SDS011;70374;46.156;18.614;2023-06-05T18:07:27;11.35;;;4.30;;
80921;SDS011;70374;46.156;18.614;2023-06-05T18:10:30;8.25;;;3.87;;
80921;SDS011;70374;46.156;18.614;2023-06-05T18:13:32;11.10;;;4.50;;
80921;SDS011;70374;46.156;18.614;2023-06-05T18:16:35;8.18;;;4.05;;
80921;SDS011;70374;46.156;18.614;2023-06-05T18:19:38;8.80;;;4.00;;
80921;SDS011;70374;46.156;18.614;2023-06-05T18:22:40;16.35;;;7.70;;
80921;SDS011;70374;46.156;18.614;2023-06-05T18:25:43;10.35;;;5.95;;
80921;SDS011;70374;46.156;18.614;2023-06-05T18:28:46;10.00;;;5.10;;